Time;durP1;ratioP1;P1;durP2;ratioP2;P2;SDS_P1;SDS_P2;PMS_P1;PMS_P2;Temp;Humidity;BMP_temperature;BMP_pressure;BME280_temperature;BME280_humidity;BME280_pressure;Samples;Min_cycle;Max_cycle;Signal;HPM_P1;HPM_P2
2021/09/22 00:00:11;;;;;;;;;;;15.70;98.10;16.10;100506.00;;;;337526;28;90318;-93
2021/09/22 00:00:23;;;;;;;;;;;15.70;98.10;16.10;100503.00;;;;339278;28;83417;-92
2021/09/22 00:00:35;;;;;;;;;;;15.80;98.10;16.10;100498.00;;;;337675;28;90180;-93
2021/09/22 00:00:47;;;;;;;;;;;15.80;98.20;16.10;100500.00;;;;339185;28;83457;-93
2021/09/22 00:00:59;;;;;;;;;;;15.80;98.20;16.00;100508.00;;;;341296;28;88925;-92
2021/09/22 00:01:10;;;;;;;;;;;15.80;98.20;15.90;100501.00;;;;340583;28;83316;-92
2021/09/22 00:01:22;;;;;;;;;;;15.80;98.10;16.00;100500.00;;;;337585;28;89703;-93
2021/09/22 00:01:34;;;;;;;;;;;15.80;98.10;16.10;100501.00;;;;347638;28;83367;-93
2021/09/22 00:01:46;;;;;;;;;;;15.80;98.10;16.10;100500.00;;;;338726;28;92591;-92
2021/09/22 00:01:58;;;;;;;;;;;15.80;98.00;16.00;100503.00;;;;339238;28;83414;-92
2021/09/22 00:02:10;;;;;;;;;;;15.80;97.90;16.00;100501.00;;;;337341;28;91404;-91
2021/09/22 00:02:22;;;;;;;;;;;15.80;97.90;15.90;100500.00;;;;336561;28;83581;-92
2021/09/22 00:02:35;;;;;;;;;;;15.80;97.90;15.90;100495.00;;;;337516;28;91362;-93
2021/09/22 00:02:47;;;;;;;;;;;15.70;97.90;15.80;100498.00;;;;339181;28;82587;-92
2021/09/22 00:02:59;;;;;;;;;;;15.70;97.90;15.80;100492.00;;;;338798;28;91165;-92
2021/09/22 00:03:11;;;;;;;;;;;15.70;97.90;15.70;100498.00;;;;340442;28;83412;-92
2021/09/22 00:03:23;;;;;;;;;;;15.70;97.90;15.80;100496.00;;;;337555;28;91467;-92
2021/09/22 00:03:35;;;;;;;;;;;15.70;98.00;15.90;100506.00;;;;339244;28;83390;-92
2021/09/22 00:03:47;;;;;;;;;;;15.70;98.00;16.00;100496.00;;;;337465;28;91385;-93
2021/09/22 00:03:59;;;;;;;;;;;15.70;98.10;15.90;100498.00;;;;337941;28;83433;-93
2021/09/22 00:04:11;;;;;;;;;;;15.70;98.10;15.80;100500.00;;;;337394;28;91446;-92
2021/09/22 00:04:23;;;;;;;;;;;15.70;98.10;15.90;100493.00;;;;337875;28;82502;-93
2021/09/22 00:04:35;;;;;;;;;;;15.70;98.10;16.00;100499.00;;;;344391;28;91355;-92
2021/09/22 00:04:47;;;;;;;;;;;15.70;98.20;16.00;100504.00;;;;337863;28;82501;-93
2021/09/22 00:04:59;;;;;;;;;;;15.60;98.20;15.80;100499.00;;;;344487;28;90457;-93
2021/09/22 00:05:11;;;;;;;;;;;15.70;98.20;15.80;100497.00;;;;344857;28;83470;-93
2021/09/22 00:05:23;;;;;;;;;;;15.70;98.00;15.70;100495.00;;;;337483;28;90216;-93
2021/09/22 00:05:34;;;;;;;;;;;15.60;98.00;15.80;100502.00;;;;346155;28;82559;-94
2021/09/22 00:05:46;;;;;;;;;;;15.60;98.00;15.70;100500.00;;;;338723;28;92265;-93
2021/09/22 00:05:58;;;;;;;;;;;15.60;98.10;15.70;100502.00;;;;337923;28;82467;-93
2021/09/22 00:06:10;;;;;;;;;;;15.60;98.20;15.70;100500.00;;;;337344;28;91452;-93
2021/09/22 00:06:21;;;;;;;;;;;15.60;98.20;15.80;100498.00;;;;337974;28;83348;-93
2021/09/22 00:06:33;;;;;;;;;;;15.60;98.20;15.80;100498.00;;;;337528;28;90326;-92
2021/09/22 00:06:45;;;;;;;;;;;15.60;98.30;15.80;100502.00;;;;339177;28;83455;-93
2021/09/22 00:06:57;;;;;;;;;;;15.60;98.40;15.80;100500.00;;;;337429;28;91084;-93
2021/09/22 00:07:09;;;;;;;;;;;15.60;98.40;15.80;100492.00;;;;337866;28;83390;-93
2021/09/22 00:07:20;;;;;;;;;;;15.60;98.40;15.90;100495.00;;;;339930;28;90626;-93
2021/09/22 00:07:32;;;;;;;;;;;15.60;98.40;15.90;100499.00;;;;339152;28;83454;-93
2021/09/22 00:07:44;;;;;;;;;;;15.60;98.40;15.90;100496.00;;;;338711;28;91131;-93
2021/09/22 00:07:56;;;;;;;;;;;15.60;98.30;15.80;100506.00;;;;339207;28;83436;-92
2021/09/22 00:08:08;;;;;;;;;;;15.60;98.30;15.90;100506.00;;;;337435;28;90030;-93
2021/09/22 00:08:20;;;;;;;;;;;15.60;98.30;15.90;100497.00;;;;336595;28;83338;-93
2021/09/22 00:08:31;;;;;;;;;;;15.60;98.30;15.80;100499.00;;;;337524;28;91132;-93
2021/09/22 00:08:43;;;;;;;;;;;15.60;98.30;15.70;100500.00;;;;337886;28;83845;-92
2021/09/22 00:08:55;;;;;;;;;;;15.60;98.30;15.60;100502.00;;;;337523;28;90221;-92
2021/09/22 00:09:07;;;;;;;;;;;15.50;98.30;15.70;100504.00;;;;337847;28;83369;-93
2021/09/22 00:09:18;;;;;;;;;;;15.50;98.40;15.70;100500.00;;;;337425;28;91781;-93
2021/09/22 00:09:30;;;;;;;;;;;15.50;98.40;15.80;100504.00;;;;344860;28;83455;-93
2021/09/22 00:09:42;;;;;;;;;;;15.50;98.40;15.70;100509.00;;;;344257;28;92324;-93
2021/09/22 00:09:54;;;;;;;;;;;15.50;98.40;15.80;100502.00;;;;339201;28;83489;-92
2021/09/22 00:10:07;;;;;;;;;;;15.50;98.40;15.80;100502.00;;;;343061;28;91316;-93
2021/09/22 00:10:20;;;;;;;;;;;15.50;98.40;15.80;100498.00;;;;346147;28;83442;-92
2021/09/22 00:10:32;;;;;;;;;;;15.50;98.40;15.80;100502.00;;;;345800;28;91948;-93
2021/09/22 00:10:43;;;;;;;;;;;15.50;98.40;15.80;100499.00;;;;347612;28;83318;-93
2021/09/22 00:10:56;;;;;;;;;;;15.50;98.30;15.80;100500.00;;;;347096;28;91804;-93
2021/09/22 00:11:07;;;;;;;;;;;15.50;98.40;15.90;100495.00;;;;346186;28;82461;-92
2021/09/22 00:11:19;;;;;;;;;;;15.50;98.40;15.80;100498.00;;;;344397;28;91697;-94
2021/09/22 00:11:31;;;;;;;;;;;15.50;98.30;15.80;100495.00;;;;346155;28;83534;-93
2021/09/22 00:11:43;;;;;;;;;;;15.50;98.30;15.80;100501.00;;;;347056;28;92335;-93
2021/09/22 00:11:55;;;;;;;;;;;15.50;98.20;15.80;100492.00;;;;347525;28;83561;-92
2021/09/22 00:12:06;;;;;;;;;;;15.50;98.30;15.80;100503.00;;;;344359;28;91539;-93
2021/09/22 00:12:18;;;;;;;;;;;15.50;98.30;15.80;100498.00;;;;346193;28;83380;-93
2021/09/22 00:12:30;;;;;;;;;;;15.50;98.30;15.80;100499.00;;;;347159;28;91526;-92
2021/09/22 00:12:42;;;;;;;;;;;15.50;98.30;15.90;100496.00;;;;346270;28;83343;-93
2021/09/22 00:12:54;;;;;;;;;;;15.50;98.40;15.90;100496.00;;;;346889;28;89496;-93
2021/09/22 00:13:06;;;;;;;;;;;15.50;98.40;15.90;100497.00;;;;344734;28;82646;-93
2021/09/22 00:13:18;;;;;;;;;;;15.60;98.40;15.90;100498.00;;;;348295;27;89562;-93
2021/09/22 00:13:30;;;;;;;;;;;15.50;98.30;15.80;100500.00;;;;346083;28;82486;-93
2021/09/22 00:13:42;;;;;;;;;;;15.50;98.30;15.80;100500.00;;;;345746;28;92286;-92
2021/09/22 00:13:53;;;;;;;;;;;15.50;98.30;15.90;100491.00;;;;344606;28;83507;-93
2021/09/22 00:14:05;;;;;;;;;;;15.50;98.30;15.90;100487.00;;;;344481;28;87748;-92
2021/09/22 00:14:17;;;;;;;;;;;15.50;98.40;15.90;100498.00;;;;346169;28;83396;-94
2021/09/22 00:14:29;;;;;;;;;;;15.60;98.40;15.90;100493.00;;;;344396;28;90484;-93
2021/09/22 00:14:40;;;;;;;;;;;15.60;98.40;15.90;100492.00;;;;344849;28;83820;-93
2021/09/22 00:14:52;;;;;;;;;;;15.60;98.40;15.90;100496.00;;;;345575;28;90622;-93
2021/09/22 00:15:05;;;;;;;;;;;15.60;98.40;15.90;100494.00;;;;347561;28;83416;-93
2021/09/22 00:15:21;;;;;;;;;;;15.60;98.40;15.90;100491.00;;;;342986;28;91734;-92
2021/09/22 00:15:33;;;;;;;;;;;15.60;98.40;16.00;100493.00;;;;346232;28;83307;-93
2021/09/22 00:15:45;;;;;;;;;;;15.60;98.40;15.90;100494.00;;;;345752;28;90727;-92
2021/09/22 00:15:56;;;;;;;;;;;15.60;98.60;16.00;100491.00;;;;344761;28;83364;-93
2021/09/22 00:16:08;;;;;;;;;;;15.60;98.30;15.90;100493.00;;;;345721;28;91837;-93
2021/09/22 00:16:20;;;;;;;;;;;15.60;98.40;15.90;100490.00;;;;344842;28;83436;-93
2021/09/22 00:16:32;;;;;;;;;;;15.60;98.40;16.00;100495.00;;;;347013;28;90506;-93
2021/09/22 00:16:44;;;;;;;;;;;15.60;98.30;15.80;100485.00;;;;346151;28;82522;-93
2021/09/22 00:16:56;;;;;;;;;;;15.60;98.30;15.90;100490.00;;;;344350;28;91561;-93
2021/09/22 00:17:09;;;;;;;;;;;15.60;98.30;15.80;100494.00;;;;346143;28;83382;-92
2021/09/22 00:17:21;;;;;;;;;;;15.60;98.30;15.90;100491.00;;;;345838;28;91215;-93
2021/09/22 00:17:33;;;;;;;;;;;15.60;98.30;15.80;100494.00;;;;347550;28;82550;-93
2021/09/22 00:17:45;;;;;;;;;;;15.60;98.30;15.70;100498.00;;;;344268;28;91823;-92
2021/09/22 00:17:56;;;;;;;;;;;15.60;98.20;15.80;100487.00;;;;349009;27;83344;-93
2021/09/22 00:18:08;;;;;;;;;;;15.60;98.20;15.90;100496.00;;;;347129;28;91634;-94
2021/09/22 00:18:20;;;;;;;;;;;15.60;98.30;15.90;100493.00;;;;347575;28;83923;-93
2021/09/22 00:18:32;;;;;;;;;;;15.60;98.30;16.00;100492.00;;;;347256;28;90439;-94
2021/09/22 00:18:44;;;;;;;;;;;15.60;98.40;15.90;100493.00;;;;349003;27;82528;-93
2021/09/22 00:18:56;;;;;;;;;;;15.60;98.30;16.00;100483.00;;;;344262;28;91563;-92
2021/09/22 00:19:08;;;;;;;;;;;15.60;98.30;15.80;100498.00;;;;346231;28;82496;-92
2021/09/22 00:19:20;;;;;;;;;;;15.60;98.20;15.70;100491.00;;;;345730;28;90526;-93
2021/09/22 00:19:31;;;;;;;;;;;15.60;98.10;15.70;100498.00;;;;344874;28;82518;-93
2021/09/22 00:19:43;;;;;;;;;;;15.60;98.20;15.70;100494.00;;;;346000;28;88639;-92
2021/09/22 00:19:55;;;;;;;;;;;15.60;98.20;15.70;100496.00;;;;343511;28;83447;-92
2021/09/22 00:20:07;;;;;;;;;;;15.50;98.20;15.80;100491.00;;;;343118;28;90069;-93
2021/09/22 00:20:25;;;;;;;;;;;15.50;98.30;15.80;100490.00;;;;347520;28;83438;-93
2021/09/22 00:20:46;;;;;;;;;;;15.60;98.50;15.80;100497.00;;;;345791;28;90460;-93
2021/09/22 00:20:58;;;;;;;;;;;15.60;98.50;15.80;100490.00;;;;346284;28;82525;-93
2021/09/22 00:21:09;;;;;;;;;;;15.60;98.40;15.90;100478.00;;;;345731;28;90688;-93
2021/09/22 00:21:21;;;;;;;;;;;15.60;98.40;15.90;100485.00;;;;347716;28;83428;-92
2021/09/22 00:21:33;;;;;;;;;;;15.60;98.40;15.90;100484.00;;;;347202;28;91495;-93
2021/09/22 00:21:45;;;;;;;;;;;15.60;98.40;15.90;100489.00;;;;349171;27;83382;-93
2021/09/22 00:21:57;;;;;;;;;;;15.60;98.40;15.90;100492.00;;;;344386;28;92172;-93
2021/09/22 00:22:08;;;;;;;;;;;15.60;98.40;15.90;100491.00;;;;347679;28;83385;-94
2021/09/22 00:22:20;;;;;;;;;;;15.60;98.30;15.90;100488.00;;;;348674;27;88679;-93
2021/09/22 00:22:33;;;;;;;;;;;15.60;98.30;15.70;100488.00;;;;347743;28;83283;-93
2021/09/22 00:22:45;;;;;;;;;;;15.60;98.40;15.80;100490.00;;;;345853;28;91455;-92
2021/09/22 00:22:58;;;;;;;;;;;15.60;98.40;15.80;100486.00;;;;346306;28;82489;-93
2021/09/22 00:23:10;;;;;;;;;;;15.60;98.40;15.90;100490.00;;;;348658;27;91423;-92
2021/09/22 00:23:21;;;;;;;;;;;15.60;98.40;15.90;100485.00;;;;348989;27;83390;-93
2021/09/22 00:23:33;;;;;;;;;;;15.60;98.40;15.90;100484.00;;;;348662;27;91151;-92
2021/09/22 00:23:45;;;;;;;;;;;15.60;98.40;15.90;100485.00;;;;346315;28;83560;-93
2021/09/22 00:23:57;;;;;;;;;;;15.60;98.40;15.80;100481.00;;;;345674;28;90864;-94
2021/09/22 00:24:09;;;;;;;;;;;15.60;98.40;15.90;100482.00;;;;346177;28;83273;-93
2021/09/22 00:24:20;;;;;;;;;;;15.60;98.40;15.80;100480.00;;;;345835;28;91677;-93
2021/09/22 00:24:32;;;;;;;;;;;15.60;98.40;15.80;100488.00;;;;346423;28;83347;-93
2021/09/22 00:24:44;;;;;;;;;;;15.60;98.30;15.80;100491.00;;;;345871;28;90102;-93
2021/09/22 00:24:56;;;;;;;;;;;15.60;98.30;15.80;100481.00;;;;346326;28;83381;-93
2021/09/22 00:25:09;;;;;;;;;;;15.60;98.30;15.80;100485.00;;;;347213;28;89312;-92
2021/09/22 00:25:21;;;;;;;;;;;15.60;98.40;15.80;100479.00;;;;346445;28;83342;-93
2021/09/22 00:25:33;;;;;;;;;;;15.60;98.40;15.80;100482.00;;;;346025;28;91323;-93
2021/09/22 00:25:45;;;;;;;;;;;15.50;98.40;15.80;100478.00;;;;346616;28;82325;-93
2021/09/22 00:25:56;;;;;;;;;;;15.50;98.40;15.90;100483.00;;;;347411;28;92336;-92
2021/09/22 00:26:08;;;;;;;;;;;15.50;98.70;15.90;100480.00;;;;346282;28;83570;-93
2021/09/22 00:26:21;;;;;;;;;;;15.50;98.40;15.90;100481.00;;;;345793;28;91401;-92
2021/09/22 00:26:33;;;;;;;;;;;15.50;98.40;15.80;100473.00;;;;345114;28;82400;-93
2021/09/22 00:26:45;;;;;;;;;;;15.50;98.50;15.90;100482.00;;;;347416;28;90625;-93
2021/09/22 00:26:58;;;;;;;;;;;15.60;98.50;15.90;100483.00;;;;347618;27;82631;-93
2021/09/22 00:27:10;;;;;;;;;;;15.60;98.50;15.90;100482.00;;;;344640;28;90345;-93
2021/09/22 00:27:22;;;;;;;;;;;15.60;98.50;15.90;100480.00;;;;347936;28;82527;-93
2021/09/22 00:27:33;;;;;;;;;;;15.60;98.50;16.00;100478.00;;;;345893;28;90116;-93
2021/09/22 00:27:45;;;;;;;;;;;15.60;98.50;15.90;100478.00;;;;347860;28;83349;-93
2021/09/22 00:27:57;;;;;;;;;;;15.60;98.50;16.00;100479.00;;;;345721;28;91732;-93
2021/09/22 00:28:09;;;;;;;;;;;15.60;98.50;15.90;100484.00;;;;347776;27;83477;-92
2021/09/22 00:28:21;;;;;;;;;;;15.60;98.40;15.80;100468.00;;;;348736;27;91875;-93
2021/09/22 00:28:33;;;;;;;;;;;15.60;98.40;15.90;100477.00;;;;349252;27;82481;-93
2021/09/22 00:28:44;;;;;;;;;;;15.60;98.70;15.90;100479.00;;;;348740;27;91900;-93
2021/09/22 00:28:56;;;;;;;;;;;15.60;98.40;15.90;100480.00;;;;347874;28;82526;-93
2021/09/22 00:29:08;;;;;;;;;;;15.60;98.40;15.90;100477.00;;;;346090;28;90407;-94
2021/09/22 00:29:20;;;;;;;;;;;15.60;98.40;15.90;100484.00;;;;346134;28;83511;-94
2021/09/22 00:29:32;;;;;;;;;;;15.60;98.40;15.90;100477.00;;;;347216;28;90406;-94
2021/09/22 00:29:43;;;;;;;;;;;15.60;98.40;15.90;100472.00;;;;346347;28;83464;-93
2021/09/22 00:29:57;;;;;;;;;;;15.60;98.40;15.90;100478.00;;;;344622;28;89008;-93
2021/09/22 00:30:10;;;;;;;;;;;15.60;98.30;15.70;100471.00;;;;347823;28;83450;-93
2021/09/22 00:30:22;;;;;;;;;;;15.60;98.30;15.70;100481.00;;;;347423;28;91562;-93
2021/09/22 00:30:35;;;;;;;;;;;15.60;98.20;15.80;100474.00;;;;346224;28;82630;-93
2021/09/22 00:30:48;;;;;;;;;;;15.60;98.30;15.70;100479.00;;;;347408;28;89990;-93
2021/09/22 00:30:59;;;;;;;;;;;15.60;98.30;15.90;100477.00;;;;349320;27;82360;-93
2021/09/22 00:31:11;;;;;;;;;;;15.60;98.40;15.90;100478.00;;;;347347;28;90127;-93
2021/09/22 00:31:23;;;;;;;;;;;15.60;98.40;15.90;100481.00;;;;347774;28;83371;-93
2021/09/22 00:31:36;;;;;;;;;;;15.60;98.40;15.90;100476.00;;;;347327;28;90476;-93
2021/09/22 00:31:48;;;;;;;;;;;15.60;98.30;15.90;100483.00;;;;349078;27;82500;-92
2021/09/22 00:32:00;;;;;;;;;;;15.60;98.30;15.90;100476.00;;;;345984;28;92294;-93
2021/09/22 00:32:12;;;;;;;;;;;15.60;98.30;16.00;100476.00;;;;346280;28;83443;-93
2021/09/22 00:32:25;;;;;;;;;;;15.60;98.30;15.90;100478.00;;;;346132;28;90430;-92
2021/09/22 00:32:37;;;;;;;;;;;15.60;98.30;15.90;100476.00;;;;349341;27;83254;-93
2021/09/22 00:32:50;;;;;;;;;;;15.60;98.30;15.90;100476.00;;;;347455;28;91269;-92
2021/09/22 00:33:02;;;;;;;;;;;15.60;98.30;15.90;100474.00;;;;346479;28;82506;-92
2021/09/22 00:33:15;;;;;;;;;;;15.60;98.30;15.90;100473.00;;;;347403;28;90695;-94
2021/09/22 00:33:27;;;;;;;;;;;15.60;98.30;15.80;100475.00;;;;347777;27;82538;-93
2021/09/22 00:33:39;;;;;;;;;;;15.60;98.20;15.80;100476.00;;;;347494;28;90745;-93
2021/09/22 00:33:51;;;;;;;;;;;15.60;98.30;15.90;100478.00;;;;347863;28;83346;-93
2021/09/22 00:34:04;;;;;;;;;;;15.60;98.30;15.80;100476.00;;;;345987;28;92653;-94
2021/09/22 00:34:16;;;;;;;;;;;15.60;98.30;15.70;100479.00;;;;349041;27;83339;-94
2021/09/22 00:34:28;;;;;;;;;;;15.60;98.30;15.70;100484.00;;;;346128;28;90324;-92
2021/09/22 00:34:40;;;;;;;;;;;15.60;98.30;15.70;100481.00;;;;347818;28;83430;-92
2021/09/22 00:34:52;;;;;;;;;;;15.50;98.20;15.70;100478.00;;;;348808;27;90288;-92
2021/09/22 00:35:05;;;;;;;;;;;15.50;98.30;15.60;100481.00;;;;349240;27;82564;-93
2021/09/22 00:35:17;;;;;;;;;;;15.50;98.20;15.60;100475.00;;;;346146;28;90495;-92
2021/09/22 00:35:28;;;;;;;;;;;15.50;98.20;15.50;100481.00;;;;347904;27;82515;-93
2021/09/22 00:35:40;;;;;;;;;;;15.50;98.20;15.60;100475.00;;;;343234;28;90384;-92
2021/09/22 00:35:52;;;;;;;;;;;15.50;98.30;15.60;100475.00;;;;345060;28;83355;-93
2021/09/22 00:36:04;;;;;;;;;;;15.50;98.40;15.60;100469.00;;;;344674;28;90760;-93
2021/09/22 00:36:16;;;;;;;;;;;15.40;98.40;15.50;100478.00;;;;346350;28;83423;-92
2021/09/22 00:36:27;;;;;;;;;;;15.40;98.40;15.60;100488.00;;;;344672;28;90329;-92
2021/09/22 00:36:39;;;;;;;;;;;15.40;98.40;15.60;100476.00;;;;345059;28;82504;-92
2021/09/22 00:36:51;;;;;;;;;;;15.40;98.40;15.60;100476.00;;;;346089;28;90476;-93
2021/09/22 00:37:06;;;;;;;;;;;15.40;98.40;15.60;100481.00;;;;345141;28;83408;-92
2021/09/22 00:37:17;;;;;;;;;;;15.40;98.40;15.70;100485.00;;;;344665;28;92063;-93
2021/09/22 00:37:29;;;;;;;;;;;15.40;98.40;15.60;100478.00;;;;343748;28;83405;-92
2021/09/22 00:37:41;;;;;;;;;;;15.40;98.40;15.70;100479.00;;;;346053;28;90574;-93
2021/09/22 00:37:54;;;;;;;;;;;15.40;98.50;15.70;100483.00;;;;345165;28;82537;-93
2021/09/22 00:38:06;;;;;;;;;;;15.40;98.50;15.70;100476.00;;;;346661;28;90504;-92
2021/09/22 00:38:18;;;;;;;;;;;15.40;98.60;15.70;100480.00;;;;347790;28;82560;-93
2021/09/22 00:38:30;;;;;;;;;;;15.40;98.60;15.70;100478.00;;;;350354;27;90491;-92
2021/09/22 00:38:42;;;;;;;;;;;15.40;98.60;15.70;100479.00;;;;349472;28;82361;-92
2021/09/22 00:38:54;;;;;;;;;;;15.50;98.60;15.70;100481.00;;;;348808;28;90202;-92
2021/09/22 00:39:06;;;;;;;;;;;15.40;98.50;15.70;100479.00;;;;349240;28;82579;-92
2021/09/22 00:39:18;;;;;;;;;;;15.50;98.60;15.80;100479.00;;;;348858;28;89107;-93
2021/09/22 00:39:31;;;;;;;;;;;15.50;98.50;15.70;100484.00;;;;347941;28;82526;-93
2021/09/22 00:39:42;;;;;;;;;;;15.40;98.50;15.70;100473.00;;;;350458;27;90326;-93
2021/09/22 00:39:54;;;;;;;;;;;15.50;98.50;15.70;100478.00;;;;350959;27;82593;-93
2021/09/22 00:40:07;;;;;;;;;;;15.40;98.40;15.70;100480.00;;;;345885;28;91509;-93
2021/09/22 00:40:18;;;;;;;;;;;15.40;98.50;15.70;100483.00;;;;349312;27;82456;-93
2021/09/22 00:40:30;;;;;;;;;;;15.40;98.50;15.70;100476.00;;;;349063;28;89394;-93
2021/09/22 00:40:42;;;;;;;;;;;15.40;98.50;15.70;100470.00;;;;349343;28;82857;-92
2021/09/22 00:40:54;;;;;;;;;;;15.40;98.50;15.70;100483.00;;;;348984;28;90844;-93
2021/09/22 00:41:06;;;;;;;;;;;15.50;98.50;15.60;100475.00;;;;349095;28;82884;-93
2021/09/22 00:41:17;;;;;;;;;;;15.40;98.40;15.50;100480.00;;;;347464;28;90214;-92
2021/09/22 00:41:29;;;;;;;;;;;15.40;98.40;15.60;100476.00;;;;347955;28;82547;-93
2021/09/22 00:41:41;;;;;;;;;;;15.40;98.40;15.60;100482.00;;;;347663;28;90282;-93
2021/09/22 00:41:53;;;;;;;;;;;15.40;98.40;15.50;100478.00;;;;349276;27;82394;-93
2021/09/22 00:42:05;;;;;;;;;;;15.40;98.40;15.60;100480.00;;;;347517;28;91458;-92
2021/09/22 00:42:17;;;;;;;;;;;15.40;98.80;15.60;100473.00;;;;347869;28;82541;-93
2021/09/22 00:42:29;;;;;;;;;;;15.40;98.50;15.60;100481.00;;;;350249;27;89457;-92
2021/09/22 00:42:41;;;;;;;;;;;15.40;98.60;15.70;100476.00;;;;352121;27;84426;-92
2021/09/22 00:42:53;;;;;;;;;;;15.40;98.60;15.60;100480.00;;;;348934;28;89515;-92
2021/09/22 00:43:05;;;;;;;;;;;15.40;98.60;15.60;100476.00;;;;349463;28;82352;-91
2021/09/22 00:43:17;;;;;;;;;;;15.40;98.60;15.70;100481.00;;;;349034;27;90362;-93
2021/09/22 00:43:29;;;;;;;;;;;15.40;98.60;15.50;100467.00;;;;349284;27;82348;-93
2021/09/22 00:43:40;;;;;;;;;;;15.40;98.60;15.60;100477.00;;;;348901;28;90532;-92
2021/09/22 00:43:52;;;;;;;;;;;15.40;98.60;15.70;100477.00;;;;348181;28;82474;-92
2021/09/22 00:44:04;;;;;;;;;;;15.40;98.60;15.60;100477.00;;;;350215;27;91467;-93
2021/09/22 00:44:16;;;;;;;;;;;15.40;98.60;15.60;100466.00;;;;349040;28;82531;-92
2021/09/22 00:44:28;;;;;;;;;;;15.40;98.60;15.60;100470.00;;;;350133;27;90357;-93
2021/09/22 00:44:54;;;;;;;;;;;15.40;98.50;15.60;100476.00;;;;348360;28;82642;-93
2021/09/22 00:45:10;;;;;;;;;;;15.30;98.50;15.70;100473.00;;;;348983;28;90170;-93
2021/09/22 00:45:22;;;;;;;;;;;15.40;98.60;15.60;100473.00;;;;348045;28;82553;-93
2021/09/22 00:45:33;;;;;;;;;;;15.40;98.60;15.50;100479.00;;;;349307;28;87892;-92
2021/09/22 00:45:45;;;;;;;;;;;15.30;98.50;15.60;100472.00;;;;349432;28;82405;-92
2021/09/22 00:46:06;;;;;;;;;;;15.30;98.50;15.60;100473.00;;;;347318;28;90323;-93
2021/09/22 00:46:18;;;;;;;;;;;15.30;98.60;15.60;100477.00;;;;350709;27;82501;-93
2021/09/22 00:46:30;;;;;;;;;;;15.30;98.60;15.50;100471.00;;;;349273;28;88969;-92
2021/09/22 00:46:42;;;;;;;;;;;15.30;98.70;15.60;100460.00;;;;346661;28;82456;-93
2021/09/22 00:46:54;;;;;;;;;;;15.30;98.70;15.60;100470.00;;;;350290;27;90346;-94
2021/09/22 00:47:05;;;;;;;;;;;15.30;98.70;15.60;100474.00;;;;348040;28;82406;-93
2021/09/22 00:47:17;;;;;;;;;;;15.30;98.70;15.60;100470.00;;;;348527;28;90386;-93
2021/09/22 00:47:29;;;;;;;;;;;15.30;98.70;15.60;100464.00;;;;349212;28;82562;-92
2021/09/22 00:47:41;;;;;;;;;;;15.30;98.70;15.60;100467.00;;;;347969;28;87981;-92
2021/09/22 00:47:53;;;;;;;;;;;15.30;98.70;15.60;100463.00;;;;346606;28;82292;-93
2021/09/22 00:48:05;;;;;;;;;;;15.30;98.60;15.60;100473.00;;;;350080;27;89420;-93
2021/09/22 00:48:16;;;;;;;;;;;15.30;98.70;15.70;100472.00;;;;346478;28;82512;-93
2021/09/22 00:48:28;;;;;;;;;;;15.40;98.70;15.70;100475.00;;;;348796;28;90387;-92
2021/09/22 00:48:40;;;;;;;;;;;15.30;98.70;15.60;100473.00;;;;349315;28;82949;-93
2021/09/22 00:48:52;;;;;;;;;;;15.30;98.70;15.40;100465.00;;;;347614;28;90348;-92
2021/09/22 00:49:04;;;;;;;;;;;15.30;98.60;15.30;100470.00;;;;349328;27;82864;-92
2021/09/22 00:49:15;;;;;;;;;;;15.30;98.60;15.30;100467.00;;;;346245;28;90682;-93
2021/09/22 00:49:27;;;;;;;;;;;15.30;98.60;15.30;100476.00;;;;347792;28;82478;-93
2021/09/22 00:49:39;;;;;;;;;;;15.30;98.60;15.50;100466.00;;;;347624;28;91759;-94
2021/09/22 00:49:51;;;;;;;;;;;15.30;98.70;15.40;100462.00;;;;349462;27;82282;-94
2021/09/22 00:50:03;;;;;;;;;;;15.30;98.80;15.30;100468.00;;;;350200;27;89435;-93
2021/09/22 00:50:15;;;;;;;;;;;15.20;98.80;15.40;100471.00;;;;348591;28;82562;-95
2021/09/22 00:50:27;;;;;;;;;;;15.20;98.80;15.50;100464.00;;;;348809;28;90404;-93
2021/09/22 00:50:38;;;;;;;;;;;15.30;98.90;15.50;100472.00;;;;348025;28;82319;-93
2021/09/22 00:50:50;;;;;;;;;;;15.20;98.80;15.50;100467.00;;;;348841;27;90368;-93
2021/09/22 00:51:04;;;;;;;;;;;15.30;98.90;15.50;100465.00;;;;348117;28;82351;-94
2021/09/22 00:51:16;;;;;;;;;;;15.20;98.90;15.40;100472.00;;;;347217;28;90135;-94
2021/09/22 00:51:28;;;;;;;;;;;15.20;98.90;15.40;100464.00;;;;350374;27;82565;-93
2021/09/22 00:51:40;;;;;;;;;;;15.20;98.90;15.50;100471.00;;;;348294;28;87931;-94
2021/09/22 00:51:51;;;;;;;;;;;15.30;98.90;15.50;100470.00;;;;346069;28;82593;-94
2021/09/22 00:52:03;;;;;;;;;;;15.20;98.90;15.50;100469.00;;;;347149;28;91176;-94
2021/09/22 00:52:15;;;;;;;;;;;15.20;99.00;15.40;100471.00;;;;344792;28;82598;-93
2021/09/22 00:52:28;;;;;;;;;;;15.20;99.00;15.30;100469.00;;;;347050;28;92344;-93
2021/09/22 00:52:40;;;;;;;;;;;15.20;99.00;15.40;100473.00;;;;349031;27;82327;-91
2021/09/22 00:52:52;;;;;;;;;;;15.20;98.90;15.40;100467.00;;;;346743;28;90309;-93
2021/09/22 00:53:04;;;;;;;;;;;15.20;98.90;15.40;100466.00;;;;347514;28;82542;-93
2021/09/22 00:53:16;;;;;;;;;;;15.20;98.90;15.30;100477.00;;;;345744;28;90863;-93
2021/09/22 00:53:28;;;;;;;;;;;15.20;98.90;15.40;100471.00;;;;346137;28;82542;-93
2021/09/22 00:53:40;;;;;;;;;;;15.20;99.00;15.40;100479.00;;;;345540;28;90352;-93
2021/09/22 00:53:52;;;;;;;;;;;15.20;99.10;15.40;100468.00;;;;347419;28;83800;-93
2021/09/22 00:54:04;;;;;;;;;;;15.20;99.10;15.40;100471.00;;;;348676;27;87951;-93
2021/09/22 00:54:16;;;;;;;;;;;15.20;99.10;15.50;100472.00;;;;344784;28;83286;-94
2021/09/22 00:54:27;;;;;;;;;;;15.20;99.00;15.50;100463.00;;;;345593;28;92693;-93
2021/09/22 00:54:40;;;;;;;;;;;15.20;99.10;15.30;100469.00;;;;348950;27;83921;-92
2021/09/22 00:54:53;;;;;;;;;;;15.20;99.00;15.40;100472.00;;;;347028;28;91818;-93
2021/09/22 00:55:05;;;;;;;;;;;15.20;98.90;15.50;100475.00;;;;343413;28;83285;-93
2021/09/22 00:55:17;;;;;;;;;;;15.20;98.90;15.50;100461.00;;;;347108;28;91615;-94
2021/09/22 00:55:28;;;;;;;;;;;15.20;99.00;15.40;100469.00;;;;346130;28;82461;-93
2021/09/22 00:55:40;;;;;;;;;;;15.20;98.90;15.50;100458.00;;;;345363;28;90728;-93
2021/09/22 00:56:08;;;;;;;;;;;15.20;99.00;15.50;100466.00;;;;344543;28;83247;-94
2021/09/22 00:56:21;;;;;;;;;;;15.20;98.90;15.50;100460.00;;;;345659;28;91573;-93
2021/09/22 00:56:32;;;;;;;;;;;15.20;99.00;15.40;100462.00;;;;344756;28;83455;-93
2021/09/22 00:56:44;;;;;;;;;;;15.20;98.90;15.40;100464.00;;;;345563;28;92480;-93
2021/09/22 00:56:56;;;;;;;;;;;15.20;98.90;15.50;100465.00;;;;348814;27;83987;-93
2021/09/22 00:57:11;;;;;;;;;;;15.20;98.90;15.40;100468.00;;;;345755;28;91735;-93
2021/09/22 00:57:23;;;;;;;;;;;15.20;99.00;15.50;100463.00;;;;347125;28;82466;-94
2021/09/22 00:57:48;;;;;;;;;;;15.20;99.00;15.40;100469.00;;;;345656;28;91297;-94
2021/09/22 00:58:00;;;;;;;;;;;15.20;99.00;15.40;100464.00;;;;344716;28;83490;-93
2021/09/22 00:58:11;;;;;;;;;;;15.20;99.10;15.50;100460.00;;;;347130;28;88950;-94
2021/09/22 00:58:24;;;;;;;;;;;15.20;99.10;15.50;100465.00;;;;344843;28;83386;-93
2021/09/22 00:58:36;;;;;;;;;;;15.20;99.10;15.50;100469.00;;;;345770;28;89209;-93
2021/09/22 00:58:48;;;;;;;;;;;15.20;99.10;15.60;100466.00;;;;347513;28;83301;-93
2021/09/22 00:59:00;;;;;;;;;;;15.20;99.10;15.60;100463.00;;;;347065;28;91409;-93
2021/09/22 00:59:12;;;;;;;;;;;15.20;99.10;15.60;100467.00;;;;345487;28;84328;-94
2021/09/22 00:59:23;;;;;;;;;;;15.20;99.10;15.60;100465.00;;;;348804;27;91247;-93
2021/09/22 00:59:35;;;;;;;;;;;15.20;99.10;15.60;100466.00;;;;346017;28;83575;-93
2021/09/22 00:59:47;;;;;;;;;;;15.30;99.10;15.50;100463.00;;;;345544;28;90583;-93